Yorktown Express — WDD6127 — position and weather

sailwx.info

Track history (hours):
 
Tides and Currents Weather Stations Pressure Air Temp Water Temp Dewpoint Dewpoint Depression Visibility Wind Speed Wind Dir Waves Ship Positions

Yorktown Express

Owner: Marine Transport Management, Inc., Jacksonville, FL. More information available from US FCC via Universal Licensing System and Coast Guard Vessel Documentation Center.

Last reported at 2015-May-23 14:29 UTC. Time now 2015-May-24 23:05 UTC.
Position N 29°20' W 094°41'.

Type: Ship. MMSI: 367168650.

Date/timePositionNaut miles runAvg speedWind from/ knotsBaromVisibWave heightAir tempDewpointWater temp
2015-May-23 14:29N 29°20' W 094°41'9 9.6
2015-May-23 13:33N 29°25' W 094°49'1212.3
2015-May-23 12:33N 29°35' W 094°56'6 6.3
2015-May-23 11:33N 29°41' W 095°00'0 0.0
2015-May-23 10:32N 29°41' W 095°00'0 0.0
2015-May-23 09:32N 29°41' W 095°00'0 0.0
2015-May-23 08:32N 29°41' W 095°00'0 0.0
2015-May-23 07:32N 29°41' W 095°00'0 0.0
2015-May-23 06:32N 29°41' W 095°00'0 0.0
2015-May-23 05:32N 29°41' W 095°00'0 0.0
2015-May-23 04:32N 29°41' W 095°00'0 0.0
2015-May-23 03:32N 29°41' W 095°00'0 0.0
2015-May-23 02:32N 29°41' W 095°00'0 0.0
2015-May-23 01:32N 29°41' W 095°00'0 0.0
2015-May-23 00:29N 29°41' W 095°00'0 0.0
2015-May-22 23:32N 29°41' W 095°00'0 0.0
2015-May-22 22:32N 29°41' W 095°00'0 0.0
2015-May-22 21:32N 29°41' W 095°00'0 0.0
2015-May-22 20:32N 29°41' W 095°00'0 0.0
2015-May-22 19:32N 29°41' W 095°00'0 0.0
2015-May-22 18:32N 29°41' W 095°00'0 0.0
2015-May-22 17:32N 29°41' W 095°00'0 0.0
2015-May-22 16:32N 29°41' W 095°00'0 0.0
2015-May-22 15:32N 29°41' W 095°00'0 0.0
2015-May-22 14:32N 29°41' W 095°00'0 0.0
2015-May-22 13:32N 29°41' W 095°00'0 0.0
2015-May-22 12:32N 29°41' W 095°00'0 0.0
2015-May-22 11:32N 29°41' W 095°00'0 0.0
2015-May-22 10:32N 29°41' W 095°00'0 0.0
2015-May-22 09:32N 29°41' W 095°00'0 0.0
2015-May-22 08:32N 29°41' W 095°00'0 0.0
2015-May-22 07:32N 29°41' W 095°00'0 0.0
2015-May-22 06:32N 29°41' W 095°00'0 0.0
2015-May-22 05:32N 29°41' W 095°00'1 1.5
2015-May-22 04:33N 29°40' W 094°59'1211.7
2015-May-22 03:33N 29°30' W 094°52'1111.4
2015-May-22 02:33N 29°21' W 094°45'75217.7
2015-May-20 08:06N 24°19' W 081°52'1118.9
2015-May-20 07:30N 24°20' W 081°40'11217.3
2015-May-20 01:03N 25°27' W 080°01'918.4
2015-May-20 00:33N 25°36' W 079°60'1817.5
2015-May-19 23:33N 25°53' W 080°01'1313.0
2015-May-19 22:33N 26°06' W 080°06'1 1.5
2015-May-19 21:33N 26°04' W 080°07'0 0.0
2015-May-19 20:33N 26°04' W 080°07'0 0.0
2015-May-19 19:33N 26°04' W 080°07'0 0.0
2015-May-19 18:33N 26°04' W 080°07'0 0.0
2015-May-19 17:33N 26°04' W 080°07'0 0.0
2015-May-19 16:33N 26°04' W 080°07'0 0.0
2015-May-19 15:21N 26°04' W 080°07'0 0.0
2015-May-19 14:24N 26°04' W 080°07'0 0.0
2015-May-19 13:27N 26°04' W 080°07'0 0.0
2015-May-19 12:27N 26°04' W 080°07'0 0.0
2015-May-19 11:30N 26°04' W 080°07'0 0.0
2015-May-19 10:33N 26°04' W 080°07'5 4.8
2015-May-19 09:34N 26°06' W 080°02'2 2.2
2015-May-19 08:34N 26°05' W 080°00'6 6.1
2015-May-19 07:34N 26°10' W 079°57'7 6.8
2015-May-19 06:34N 26°17' W 079°55'7 7.3
2015-May-19 05:34N 26°24' W 079°55'9 9.1
2015-May-19 04:33N 26°33' W 079°55'1111.4
2015-May-19 03:34N 26°44' W 079°55'1111.2
2015-May-19 02:33N 26°56' W 079°56'1110.8
2015-May-19 01:34N 27°06' W 079°57'27613.1
2015-May-18 04:32N 31°42' W 079°52'2813.4
2015-May-18 02:27N 32°10' W 079°45'  
Track history (hours):
 
Tides and Currents Weather Stations Pressure Air Temp Water Temp Dewpoint Dewpoint Depression Visibility Wind Speed Wind Dir Waves Ship Positions

Yorktown Express

Owner: Marine Transport Management, Inc., Jacksonville, FL. More information available from US FCC via Universal Licensing System and Coast Guard Vessel Documentation Center.

Last reported at 2015-May-23 14:29 UTC. Time now 2015-May-24 23:05 UTC.
Position N 29°20' W 094°41'.

Type: Ship. MMSI: 367168650.

Date/timePositionNaut miles runAvg speedWind from/ knotsBaromVisibWave heightAir tempDewpointWater temp
2015-May-23 14:29N 29°20' W 094°41'9 9.6
2015-May-23 13:33N 29°25' W 094°49'1212.3
2015-May-23 12:33N 29°35' W 094°56'6 6.3
2015-May-23 11:33N 29°41' W 095°00'0 0.0
2015-May-23 10:32N 29°41' W 095°00'0 0.0
2015-May-23 09:32N 29°41' W 095°00'0 0.0
2015-May-23 08:32N 29°41' W 095°00'0 0.0
2015-May-23 07:32N 29°41' W 095°00'0 0.0
2015-May-23 06:32N 29°41' W 095°00'0 0.0
2015-May-23 05:32N 29°41' W 095°00'0 0.0
2015-May-23 04:32N 29°41' W 095°00'0 0.0
2015-May-23 03:32N 29°41' W 095°00'0 0.0
2015-May-23 02:32N 29°41' W 095°00'0 0.0
2015-May-23 01:32N 29°41' W 095°00'0 0.0
2015-May-23 00:29N 29°41' W 095°00'0 0.0
2015-May-22 23:32N 29°41' W 095°00'0 0.0
2015-May-22 22:32N 29°41' W 095°00'0 0.0
2015-May-22 21:32N 29°41' W 095°00'0 0.0
2015-May-22 20:32N 29°41' W 095°00'0 0.0
2015-May-22 19:32N 29°41' W 095°00'0 0.0
2015-May-22 18:32N 29°41' W 095°00'0 0.0
2015-May-22 17:32N 29°41' W 095°00'0 0.0
2015-May-22 16:32N 29°41' W 095°00'0 0.0
2015-May-22 15:32N 29°41' W 095°00'0 0.0
2015-May-22 14:32N 29°41' W 095°00'0 0.0
2015-May-22 13:32N 29°41' W 095°00'0 0.0
2015-May-22 12:32N 29°41' W 095°00'0 0.0
2015-May-22 11:32N 29°41' W 095°00'0 0.0
2015-May-22 10:32N 29°41' W 095°00'0 0.0
2015-May-22 09:32N 29°41' W 095°00'0 0.0
2015-May-22 08:32N 29°41' W 095°00'0 0.0
2015-May-22 07:32N 29°41' W 095°00'0 0.0
2015-May-22 06:32N 29°41' W 095°00'0 0.0
2015-May-22 05:32N 29°41' W 095°00'1 1.5
2015-May-22 04:33N 29°40' W 094°59'1211.7
2015-May-22 03:33N 29°30' W 094°52'1111.4
2015-May-22 02:33N 29°21' W 094°45'75217.7
2015-May-20 08:06N 24°19' W 081°52'1118.9
2015-May-20 07:30N 24°20' W 081°40'11217.3
2015-May-20 01:03N 25°27' W 080°01'918.4
2015-May-20 00:33N 25°36' W 079°60'1817.5
2015-May-19 23:33N 25°53' W 080°01'1313.0
2015-May-19 22:33N 26°06' W 080°06'1 1.5
2015-May-19 21:33N 26°04' W 080°07'0 0.0
2015-May-19 20:33N 26°04' W 080°07'0 0.0
2015-May-19 19:33N 26°04' W 080°07'0 0.0
2015-May-19 18:33N 26°04' W 080°07'0 0.0
2015-May-19 17:33N 26°04' W 080°07'0 0.0
2015-May-19 16:33N 26°04' W 080°07'0 0.0
2015-May-19 15:21N 26°04' W 080°07'0 0.0
2015-May-19 14:24N 26°04' W 080°07'0 0.0
2015-May-19 13:27N 26°04' W 080°07'0 0.0
2015-May-19 12:27N 26°04' W 080°07'0 0.0
2015-May-19 11:30N 26°04' W 080°07'0 0.0
2015-May-19 10:33N 26°04' W 080°07'5 4.8
2015-May-19 09:34N 26°06' W 080°02'2 2.2
2015-May-19 08:34N 26°05' W 080°00'6 6.1
2015-May-19 07:34N 26°10' W 079°57'7 6.8
2015-May-19 06:34N 26°17' W 079°55'7 7.3
2015-May-19 05:34N 26°24' W 079°55'9 9.1
2015-May-19 04:33N 26°33' W 079°55'1111.4
2015-May-19 03:34N 26°44' W 079°55'1111.2
2015-May-19 02:33N 26°56' W 079°56'1110.8
2015-May-19 01:34N 27°06' W 079°57'27613.1
2015-May-18 04:32N 31°42' W 079°52'2813.4
2015-May-18 02:27N 32°10' W 079°45'  

Dump ship's entire track history